sensor_id;sensor_type;location;lat;lon;timestamp;P1;durP1;ratioP1;P2;durP2;ratioP2
31306;SDS011;17935;51.120;13.132;2022-09-13T00:01:30;25.73;;;17.35;;
31306;SDS011;17935;51.120;13.132;2022-09-13T00:03:56;24.65;;;17.50;;
31306;SDS011;17935;51.120;13.132;2022-09-13T00:06:22;19.85;;;14.85;;
31306;SDS011;17935;51.120;13.132;2022-09-13T00:08:48;26.60;;;15.88;;
31306;SDS011;17935;51.120;13.132;2022-09-13T00:13:41;20.52;;;15.70;;
31306;SDS011;17935;51.120;13.132;2022-09-13T00:16:09;21.60;;;16.23;;
31306;SDS011;17935;51.120;13.132;2022-09-13T00:18:36;19.50;;;15.27;;
31306;SDS011;17935;51.120;13.132;2022-09-13T00:21:02;20.70;;;14.15;;
31306;SDS011;17935;51.120;13.132;2022-09-13T00:23:28;20.10;;;15.18;;
31306;SDS011;17935;51.120;13.132;2022-09-13T00:26:01;24.48;;;15.93;;
31306;SDS011;17935;51.120;13.132;2022-09-13T00:28:27;22.97;;;15.07;;
31306;SDS011;17935;51.120;13.132;2022-09-13T00:30:53;24.95;;;14.00;;
31306;SDS011;17935;51.120;13.132;2022-09-13T00:33:19;18.67;;;13.60;;
31306;SDS011;17935;51.120;13.132;2022-09-13T00:35:45;25.83;;;14.63;;
31306;SDS011;17935;51.120;13.132;2022-09-13T00:38:11;21.83;;;13.60;;
31306;SDS011;17935;51.120;13.132;2022-09-13T00:40:37;16.27;;;11.68;;
31306;SDS011;17935;51.120;13.132;2022-09-13T00:43:03;15.05;;;11.77;;
31306;SDS011;17935;51.120;13.132;2022-09-13T00:45:29;15.35;;;12.30;;
31306;SDS011;17935;51.120;13.132;2022-09-13T00:47:59;22.73;;;14.60;;
31306;SDS011;17935;51.120;13.132;2022-09-13T00:50:30;23.20;;;14.32;;
31306;SDS011;17935;51.120;13.132;2022-09-13T00:53:13;24.20;;;14.85;;
31306;SDS011;17935;51.120;13.132;2022-09-13T00:55:41;21.13;;;15.65;;
31306;SDS011;17935;51.120;13.132;2022-09-13T00:58:08;21.70;;;15.13;;
31306;SDS011;17935;51.120;13.132;2022-09-13T01:00:35;22.42;;;13.55;;
31306;SDS011;17935;51.120;13.132;2022-09-13T01:03:04;22.85;;;13.45;;
31306;SDS011;17935;51.120;13.132;2022-09-13T01:05:35;16.10;;;11.65;;
31306;SDS011;17935;51.120;13.132;2022-09-13T01:08:03;15.02;;;11.85;;
31306;SDS011;17935;51.120;13.132;2022-09-13T01:10:39;22.65;;;14.43;;
31306;SDS011;17935;51.120;13.132;2022-09-13T01:13:10;17.58;;;12.85;;
31306;SDS011;17935;51.120;13.132;2022-09-13T01:15:39;21.20;;;12.98;;
31306;SDS011;17935;51.120;13.132;2022-09-13T01:18:05;14.57;;;12.15;;
31306;SDS011;17935;51.120;13.132;2022-09-13T01:20:42;18.48;;;12.07;;
31306;SDS011;17935;51.120;13.132;2022-09-13T01:25:58;16.00;;;12.73;;
31306;SDS011;17935;51.120;13.132;2022-09-13T01:39:04;21.20;;;12.75;;
31306;SDS011;17935;51.120;13.132;2022-09-13T01:44:10;16.73;;;10.38;;
31306;SDS011;17935;51.120;13.132;2022-09-13T01:46:57;16.38;;;12.20;;
31306;SDS011;17935;51.120;13.132;2022-09-13T01:52:37;16.48;;;12.23;;
31306;SDS011;17935;51.120;13.132;2022-09-13T01:54:48;16.60;;;12.40;;
31306;SDS011;17935;51.120;13.132;2022-09-13T01:57:16;16.35;;;11.88;;
31306;SDS011;17935;51.120;13.132;2022-09-13T01:59:47;16.85;;;12.57;;
31306;SDS011;17935;51.120;13.132;2022-09-13T02:02:19;18.25;;;13.27;;
31306;SDS011;17935;51.120;13.132;2022-09-13T02:04:47;20.45;;;13.93;;
31306;SDS011;17935;51.120;13.132;2022-09-13T02:07:23;17.92;;;12.88;;
31306;SDS011;17935;51.120;13.132;2022-09-13T02:09:53;17.50;;;12.43;;
31306;SDS011;17935;51.120;13.132;2022-09-13T02:12:21;18.98;;;13.10;;
31306;SDS011;17935;51.120;13.132;2022-09-13T02:15:00;20.55;;;13.63;;
31306;SDS011;17935;51.120;13.132;2022-09-13T02:17:27;21.33;;;14.25;;
31306;SDS011;17935;51.120;13.132;2022-09-13T02:22:22;25.35;;;15.23;;
31306;SDS011;17935;51.120;13.132;2022-09-13T02:24:51;27.60;;;16.10;;
31306;SDS011;17935;51.120;13.132;2022-09-13T02:27:20;25.15;;;16.02;;
31306;SDS011;17935;51.120;13.132;2022-09-13T02:29:47;26.17;;;16.35;;
31306;SDS011;17935;51.120;13.132;2022-09-13T02:32:17;28.13;;;16.30;;
31306;SDS011;17935;51.120;13.132;2022-09-13T02:34:53;23.60;;;15.30;;
31306;SDS011;17935;51.120;13.132;2022-09-13T02:37:21;22.08;;;15.40;;
31306;SDS011;17935;51.120;13.132;2022-09-13T02:39:58;24.73;;;15.73;;
31306;SDS011;17935;51.120;13.132;2022-09-13T02:42:34;26.40;;;17.63;;
31306;SDS011;17935;51.120;13.132;2022-09-13T02:45:01;26.95;;;17.13;;
31306;SDS011;17935;51.120;13.132;2022-09-13T02:47:33;24.90;;;16.00;;
31306;SDS011;17935;51.120;13.132;2022-09-13T02:57:58;27.35;;;16.40;;
31306;SDS011;17935;51.120;13.132;2022-09-13T03:00:25;21.98;;;15.25;;
31306;SDS011;17935;51.120;13.132;2022-09-13T03:02:52;24.05;;;14.70;;
31306;SDS011;17935;51.120;13.132;2022-09-13T03:05:19;20.73;;;15.00;;
31306;SDS011;17935;51.120;13.132;2022-09-13T03:07:45;22.80;;;14.88;;
31306;SDS011;17935;51.120;13.132;2022-09-13T03:10:11;18.67;;;12.18;;
31306;SDS011;17935;51.120;13.132;2022-09-13T03:12:45;20.52;;;12.07;;
31306;SDS011;17935;51.120;13.132;2022-09-13T03:15:21;17.20;;;11.90;;
31306;SDS011;17935;51.120;13.132;2022-09-13T03:20:17;15.63;;;11.52;;
31306;SDS011;17935;51.120;13.132;2022-09-13T03:22:56;13.35;;;10.25;;
31306;SDS011;17935;51.120;13.132;2022-09-13T03:30:25;19.65;;;13.00;;
31306;SDS011;17935;51.120;13.132;2022-09-13T03:32:52;20.23;;;13.45;;
31306;SDS011;17935;51.120;13.132;2022-09-13T03:35:26;26.63;;;13.88;;
31306;SDS011;17935;51.120;13.132;2022-09-13T03:37:58;24.75;;;14.23;;
31306;SDS011;17935;51.120;13.132;2022-09-13T03:45:28;22.85;;;15.65;;
31306;SDS011;17935;51.120;13.132;2022-09-13T03:47:56;24.70;;;16.02;;
31306;SDS011;17935;51.120;13.132;2022-09-13T03:50:22;29.50;;;17.02;;
31306;SDS011;17935;51.120;13.132;2022-09-13T03:52:51;32.67;;;17.70;;
31306;SDS011;17935;51.120;13.132;2022-09-13T03:55:19;31.30;;;17.75;;
31306;SDS011;17935;51.120;13.132;2022-09-13T03:57:45;27.88;;;17.63;;
31306;SDS011;17935;51.120;13.132;2022-09-13T04:00:12;23.90;;;15.95;;
31306;SDS011;17935;51.120;13.132;2022-09-13T04:02:38;24.45;;;16.35;;
31306;SDS011;17935;51.120;13.132;2022-09-13T04:05:04;25.20;;;17.38;;
31306;SDS011;17935;51.120;13.132;2022-09-13T04:07:30;27.85;;;14.88;;
31306;SDS011;17935;51.120;13.132;2022-09-13T04:09:57;28.55;;;16.42;;
31306;SDS011;17935;51.120;13.132;2022-09-13T04:12:23;24.42;;;15.38;;
31306;SDS011;17935;51.120;13.132;2022-09-13T04:14:49;28.27;;;16.98;;
31306;SDS011;17935;51.120;13.132;2022-09-13T04:17:16;26.52;;;15.93;;
31306;SDS011;17935;51.120;13.132;2022-09-13T04:19:42;29.70;;;18.58;;
31306;SDS011;17935;51.120;13.132;2022-09-13T04:22:09;37.22;;;19.15;;
31306;SDS011;17935;51.120;13.132;2022-09-13T04:24:35;33.78;;;19.60;;
31306;SDS011;17935;51.120;13.132;2022-09-13T04:27:02;28.58;;;16.40;;
31306;SDS011;17935;51.120;13.132;2022-09-13T04:29:28;33.47;;;18.52;;
31306;SDS011;17935;51.120;13.132;2022-09-13T04:31:55;28.30;;;18.17;;
31306;SDS011;17935;51.120;13.132;2022-09-13T04:34:21;37.75;;;19.98;;
31306;SDS011;17935;51.120;13.132;2022-09-13T04:36:48;29.52;;;17.60;;
31306;SDS011;17935;51.120;13.132;2022-09-13T04:39:14;24.85;;;16.52;;
31306;SDS011;17935;51.120;13.132;2022-09-13T04:41:40;23.48;;;15.88;;
31306;SDS011;17935;51.120;13.132;2022-09-13T04:44:08;25.05;;;14.15;;
31306;SDS011;17935;51.120;13.132;2022-09-13T04:46:34;25.00;;;15.40;;
31306;SDS011;17935;51.120;13.132;2022-09-13T04:49:00;22.15;;;14.73;;
31306;SDS011;17935;51.120;13.132;2022-09-13T04:51:27;18.70;;;13.23;;
31306;SDS011;17935;51.120;13.132;2022-09-13T04:53:53;18.27;;;12.32;;
31306;SDS011;17935;51.120;13.132;2022-09-13T04:56:20;19.92;;;13.20;;
31306;SDS011;17935;51.120;13.132;2022-09-13T04:58:47;18.25;;;11.52;;
31306;SDS011;17935;51.120;13.132;2022-09-13T05:01:13;16.95;;;12.20;;
31306;SDS011;17935;51.120;13.132;2022-09-13T05:03:38;14.70;;;10.88;;
31306;SDS011;17935;51.120;13.132;2022-09-13T05:06:05;12.85;;;10.45;;
31306;SDS011;17935;51.120;13.132;2022-09-13T05:08:32;12.45;;;9.65;;
31306;SDS011;17935;51.120;13.132;2022-09-13T05:10:58;11.93;;;8.68;;
31306;SDS011;17935;51.120;13.132;2022-09-13T05:13:25;11.52;;;8.90;;
31306;SDS011;17935;51.120;13.132;2022-09-13T05:15:54;8.93;;;7.82;;
31306;SDS011;17935;51.120;13.132;2022-09-13T05:18:21;10.18;;;8.40;;
31306;SDS011;17935;51.120;13.132;2022-09-13T05:20:47;12.65;;;7.90;;
31306;SDS011;17935;51.120;13.132;2022-09-13T05:23:13;9.63;;;7.78;;
31306;SDS011;17935;51.120;13.132;2022-09-13T05:25:38;10.45;;;8.02;;
31306;SDS011;17935;51.120;13.132;2022-09-13T05:28:04;8.35;;;7.40;;
31306;SDS011;17935;51.120;13.132;2022-09-13T05:30:30;9.75;;;6.45;;
31306;SDS011;17935;51.120;13.132;2022-09-13T05:32:56;6.80;;;5.88;;
31306;SDS011;17935;51.120;13.132;2022-09-13T05:35:22;7.38;;;6.20;;
31306;SDS011;17935;51.120;13.132;2022-09-13T05:37:48;8.65;;;5.85;;
31306;SDS011;17935;51.120;13.132;2022-09-13T05:40:14;11.55;;;6.75;;
31306;SDS011;17935;51.120;13.132;2022-09-13T05:42:40;6.45;;;5.82;;
31306;SDS011;17935;51.120;13.132;2022-09-13T05:45:06;6.85;;;5.97;;
31306;SDS011;17935;51.120;13.132;2022-09-13T05:47:32;8.25;;;6.07;;
31306;SDS011;17935;51.120;13.132;2022-09-13T05:49:58;9.98;;;5.28;;
31306;SDS011;17935;51.120;13.132;2022-09-13T05:52:24;5.35;;;4.40;;
31306;SDS011;17935;51.120;13.132;2022-09-13T05:54:50;4.88;;;4.40;;
31306;SDS011;17935;51.120;13.132;2022-09-13T05:57:16;5.43;;;4.25;;
31306;SDS011;17935;51.120;13.132;2022-09-13T05:59:42;4.30;;;3.90;;
31306;SDS011;17935;51.120;13.132;2022-09-13T06:02:08;5.10;;;3.72;;
31306;SDS011;17935;51.120;13.132;2022-09-13T06:04:34;5.00;;;4.05;;
31306;SDS011;17935;51.120;13.132;2022-09-13T06:07:00;5.20;;;4.15;;
31306;SDS011;17935;51.120;13.132;2022-09-13T06:09:26;6.25;;;4.60;;
31306;SDS011;17935;51.120;13.132;2022-09-13T06:11:52;4.78;;;3.80;;
31306;SDS011;17935;51.120;13.132;2022-09-13T06:14:18;3.95;;;2.95;;
31306;SDS011;17935;51.120;13.132;2022-09-13T06:16:44;6.28;;;3.83;;
31306;SDS011;17935;51.120;13.132;2022-09-13T06:19:10;6.30;;;3.85;;
31306;SDS011;17935;51.120;13.132;2022-09-13T06:21:36;5.35;;;3.40;;
31306;SDS011;17935;51.120;13.132;2022-09-13T06:24:02;5.32;;;4.13;;
31306;SDS011;17935;51.120;13.132;2022-09-13T06:26:28;7.88;;;3.92;;
31306;SDS011;17935;51.120;13.132;2022-09-13T06:28:55;13.27;;;4.78;;
31306;SDS011;17935;51.120;13.132;2022-09-13T06:31:22;5.65;;;4.47;;
31306;SDS011;17935;51.120;13.132;2022-09-13T06:33:48;6.30;;;4.50;;
31306;SDS011;17935;51.120;13.132;2022-09-13T06:36:19;4.80;;;4.28;;
31306;SDS011;17935;51.120;13.132;2022-09-13T06:38:45;7.22;;;4.18;;
31306;SDS011;17935;51.120;13.132;2022-09-13T06:41:13;5.88;;;3.60;;
31306;SDS011;17935;51.120;13.132;2022-09-13T06:43:39;4.40;;;4.00;;
31306;SDS011;17935;51.120;13.132;2022-09-13T06:46:07;4.57;;;3.85;;
31306;SDS011;17935;51.120;13.132;2022-09-13T06:48:35;6.18;;;3.63;;
31306;SDS011;17935;51.120;13.132;2022-09-13T06:51:03;4.75;;;4.28;;
31306;SDS011;17935;51.120;13.132;2022-09-13T06:53:29;5.38;;;4.53;;
31306;SDS011;17935;51.120;13.132;2022-09-13T06:55:59;12.15;;;4.93;;
31306;SDS011;17935;51.120;13.132;2022-09-13T06:58:25;5.35;;;4.20;;
31306;SDS011;17935;51.120;13.132;2022-09-13T07:00:53;5.55;;;4.78;;
31306;SDS011;17935;51.120;13.132;2022-09-13T07:03:19;4.97;;;4.47;;
31306;SDS011;17935;51.120;13.132;2022-09-13T07:05:45;9.23;;;4.60;;
31306;SDS011;17935;51.120;13.132;2022-09-13T07:08:11;4.95;;;3.78;;
31306;SDS011;17935;51.120;13.132;2022-09-13T07:10:37;6.28;;;4.30;;
31306;SDS011;17935;51.120;13.132;2022-09-13T07:13:03;5.00;;;4.00;;
31306;SDS011;17935;51.120;13.132;2022-09-13T07:15:28;5.05;;;4.55;;
31306;SDS011;17935;51.120;13.132;2022-09-13T07:17:54;6.32;;;4.13;;
31306;SDS011;17935;51.120;13.132;2022-09-13T07:20:20;8.48;;;5.07;;
31306;SDS011;17935;51.120;13.132;2022-09-13T07:22:47;6.95;;;5.40;;
31306;SDS011;17935;51.120;13.132;2022-09-13T07:25:13;7.03;;;4.75;;
31306;SDS011;17935;51.120;13.132;2022-09-13T07:27:39;6.95;;;5.63;;
31306;SDS011;17935;51.120;13.132;2022-09-13T07:30:06;6.28;;;5.30;;
31306;SDS011;17935;51.120;13.132;2022-09-13T07:32:32;7.80;;;5.82;;
31306;SDS011;17935;51.120;13.132;2022-09-13T07:34:58;6.25;;;5.22;;
31306;SDS011;17935;51.120;13.132;2022-09-13T07:37:24;7.05;;;5.25;;
31306;SDS011;17935;51.120;13.132;2022-09-13T07:39:50;10.13;;;5.80;;
31306;SDS011;17935;51.120;13.132;2022-09-13T07:42:15;7.57;;;5.65;;
31306;SDS011;17935;51.120;13.132;2022-09-13T07:44:42;8.32;;;5.13;;
31306;SDS011;17935;51.120;13.132;2022-09-13T07:47:07;7.15;;;4.90;;
31306;SDS011;17935;51.120;13.132;2022-09-13T07:49:33;6.82;;;5.57;;
31306;SDS011;17935;51.120;13.132;2022-09-13T07:51:59;7.32;;;6.28;;
31306;SDS011;17935;51.120;13.132;2022-09-13T07:54:25;7.53;;;5.78;;
31306;SDS011;17935;51.120;13.132;2022-09-13T07:56:51;7.78;;;5.28;;
31306;SDS011;17935;51.120;13.132;2022-09-13T07:59:17;8.98;;;5.50;;
31306;SDS011;17935;51.120;13.132;2022-09-13T08:01:47;6.55;;;5.45;;
31306;SDS011;17935;51.120;13.132;2022-09-13T08:04:15;6.65;;;5.80;;
31306;SDS011;17935;51.120;13.132;2022-09-13T08:06:42;8.35;;;5.80;;
31306;SDS011;17935;51.120;13.132;2022-09-13T08:09:08;6.20;;;5.60;;
31306;SDS011;17935;51.120;13.132;2022-09-13T08:11:36;7.03;;;5.22;;
31306;SDS011;17935;51.120;13.132;2022-09-13T08:14:03;9.75;;;6.20;;
31306;SDS011;17935;51.120;13.132;2022-09-13T08:16:29;7.13;;;6.15;;
31306;SDS011;17935;51.120;13.132;2022-09-13T08:18:56;9.95;;;6.38;;
31306;SDS011;17935;51.120;13.132;2022-09-13T08:21:23;6.25;;;5.53;;
31306;SDS011;17935;51.120;13.132;2022-09-13T08:23:52;6.82;;;5.40;;
31306;SDS011;17935;51.120;13.132;2022-09-13T08:26:19;5.45;;;4.88;;
31306;SDS011;17935;51.120;13.132;2022-09-13T08:28:45;6.93;;;5.15;;
31306;SDS011;17935;51.120;13.132;2022-09-13T08:31:12;16.92;;;6.95;;
31306;SDS011;17935;51.120;13.132;2022-09-13T08:33:41;7.95;;;4.65;;
31306;SDS011;17935;51.120;13.132;2022-09-13T08:36:08;4.97;;;4.53;;
31306;SDS011;17935;51.120;13.132;2022-09-13T08:38:34;6.72;;;5.38;;
31306;SDS011;17935;51.120;13.132;2022-09-13T08:41:48;6.15;;;4.28;;
31306;SDS011;17935;51.120;13.132;2022-09-13T08:43:50;6.93;;;4.45;;
31306;SDS011;17935;51.120;13.132;2022-09-13T08:46:26;4.60;;;3.92;;
31306;SDS011;17935;51.120;13.132;2022-09-13T08:48:55;4.90;;;4.15;;
31306;SDS011;17935;51.120;13.132;2022-09-13T08:51:26;10.77;;;4.30;;
31306;SDS011;17935;51.120;13.132;2022-09-13T08:53:53;5.47;;;4.28;;
31306;SDS011;17935;51.120;13.132;2022-09-13T08:56:21;6.40;;;3.78;;
31306;SDS011;17935;51.120;13.132;2022-09-13T08:58:54;4.38;;;3.90;;
31306;SDS011;17935;51.120;13.132;2022-09-13T09:06:23;5.90;;;3.72;;
31306;SDS011;17935;51.120;13.132;2022-09-13T09:09:02;3.95;;;3.55;;
31306;SDS011;17935;51.120;13.132;2022-09-13T09:19:01;3.45;;;3.15;;
31306;SDS011;17935;51.120;13.132;2022-09-13T09:21:29;3.85;;;3.15;;
31306;SDS011;17935;51.120;13.132;2022-09-13T09:23:55;3.05;;;2.80;;
31306;SDS011;17935;51.120;13.132;2022-09-13T09:26:25;4.30;;;3.35;;
31306;SDS011;17935;51.120;13.132;2022-09-13T09:31:26;6.10;;;3.35;;
31306;SDS011;17935;51.120;13.132;2022-09-13T09:36:43;5.90;;;2.88;;
31306;SDS011;17935;51.120;13.132;2022-09-13T09:39:11;8.10;;;3.08;;
31306;SDS011;17935;51.120;13.132;2022-09-13T09:41:38;3.63;;;3.03;;
31306;SDS011;17935;51.120;13.132;2022-09-13T09:46:33;4.35;;;2.40;;
31306;SDS011;17935;51.120;13.132;2022-09-13T09:49:18;3.72;;;2.80;;
31306;SDS011;17935;51.120;13.132;2022-09-13T09:52:04;2.33;;;2.13;;
31306;SDS011;17935;51.120;13.132;2022-09-13T09:54:33;2.40;;;2.20;;
31306;SDS011;17935;51.120;13.132;2022-09-13T09:57:00;3.33;;;2.47;;
31306;SDS011;17935;51.120;13.132;2022-09-13T09:59:27;2.30;;;2.10;;
31306;SDS011;17935;51.120;13.132;2022-09-13T10:01:55;2.53;;;2.05;;
31306;SDS011;17935;51.120;13.132;2022-09-13T10:04:21;4.43;;;2.70;;
31306;SDS011;17935;51.120;13.132;2022-09-13T10:06:48;2.92;;;2.38;;
31306;SDS011;17935;51.120;13.132;2022-09-13T10:09:18;2.53;;;2.33;;
31306;SDS011;17935;51.120;13.132;2022-09-13T10:19:48;4.78;;;2.67;;
31306;SDS011;17935;51.120;13.132;2022-09-13T10:22:16;2.80;;;2.60;;
31306;SDS011;17935;51.120;13.132;2022-09-13T10:24:42;6.38;;;2.63;;
31306;SDS011;17935;51.120;13.132;2022-09-13T10:29:47;2.38;;;2.17;;
31306;SDS011;17935;51.120;13.132;2022-09-13T10:32:15;3.10;;;2.53;;
31306;SDS011;17935;51.120;13.132;2022-09-13T10:34:43;2.83;;;2.50;;
31306;SDS011;17935;51.120;13.132;2022-09-13T10:37:21;2.60;;;2.38;;
31306;SDS011;17935;51.120;13.132;2022-09-13T10:40:03;3.70;;;2.65;;
31306;SDS011;17935;51.120;13.132;2022-09-13T10:42:31;3.05;;;2.55;;
31306;SDS011;17935;51.120;13.132;2022-09-13T10:45:01;2.58;;;2.38;;
31306;SDS011;17935;51.120;13.132;2022-09-13T10:47:32;3.03;;;2.50;;
31306;SDS011;17935;51.120;13.132;2022-09-13T10:50:17;2.83;;;2.55;;
31306;SDS011;17935;51.120;13.132;2022-09-13T10:52:45;3.03;;;2.78;;
31306;SDS011;17935;51.120;13.132;2022-09-13T10:57:44;2.90;;;2.50;;
31306;SDS011;17935;51.120;13.132;2022-09-13T11:00:11;2.85;;;2.60;;
31306;SDS011;17935;51.120;13.132;2022-09-13T11:05:37;3.20;;;2.90;;
31306;SDS011;17935;51.120;13.132;2022-09-13T11:08:22;3.47;;;2.63;;
31306;SDS011;17935;51.120;13.132;2022-09-13T11:11:05;6.47;;;2.65;;
31306;SDS011;17935;51.120;13.132;2022-09-13T11:13:40;4.15;;;3.05;;
31306;SDS011;17935;51.120;13.132;2022-09-13T11:29:25;2.33;;;2.13;;
31306;SDS011;17935;51.120;13.132;2022-09-13T11:32:15;5.53;;;2.45;;
31306;SDS011;17935;51.120;13.132;2022-09-13T11:37:31;5.75;;;2.30;;
31306;SDS011;17935;51.120;13.132;2022-09-13T11:45:03;2.30;;;2.00;;
31306;SDS011;17935;51.120;13.132;2022-09-13T11:48:08;6.70;;;2.50;;
31306;SDS011;17935;51.120;13.132;2022-09-13T11:52:56;3.85;;;2.22;;
31306;SDS011;17935;51.120;13.132;2022-09-13T11:55:32;5.03;;;2.40;;
31306;SDS011;17935;51.120;13.132;2022-09-13T11:58:01;2.20;;;2.10;;
31306;SDS011;17935;51.120;13.132;2022-09-13T12:05:29;2.30;;;1.98;;
31306;SDS011;17935;51.120;13.132;2022-09-13T12:07:58;3.85;;;2.10;;
31306;SDS011;17935;51.120;13.132;2022-09-13T12:10:28;5.05;;;2.05;;
31306;SDS011;17935;51.120;13.132;2022-09-13T12:12:54;4.53;;;2.10;;
31306;SDS011;17935;51.120;13.132;2022-09-13T12:15:38;2.63;;;2.38;;
31306;SDS011;17935;51.120;13.132;2022-09-13T12:18:06;3.42;;;2.40;;
31306;SDS011;17935;51.120;13.132;2022-09-13T12:20:37;2.97;;;2.28;;
31306;SDS011;17935;51.120;13.132;2022-09-13T12:23:06;2.03;;;1.88;;
31306;SDS011;17935;51.120;13.132;2022-09-13T12:25:37;3.70;;;2.47;;
31306;SDS011;17935;51.120;13.132;2022-09-13T12:28:18;3.55;;;2.03;;
31306;SDS011;17935;51.120;13.132;2022-09-13T12:30:54;6.38;;;2.50;;
31306;SDS011;17935;51.120;13.132;2022-09-13T12:33:21;3.90;;;2.00;;
31306;SDS011;17935;51.120;13.132;2022-09-13T12:35:49;4.28;;;2.40;;
31306;SDS011;17935;51.120;13.132;2022-09-13T12:38:24;3.95;;;2.10;;
31306;SDS011;17935;51.120;13.132;2022-09-13T12:48:37;2.50;;;2.30;;
31306;SDS011;17935;51.120;13.132;2022-09-13T12:51:13;3.22;;;2.35;;
31306;SDS011;17935;51.120;13.132;2022-09-13T12:54:06;9.07;;;2.63;;
31306;SDS011;17935;51.120;13.132;2022-09-13T12:56:41;9.43;;;3.13;;
31306;SDS011;17935;51.120;13.132;2022-09-13T12:59:18;14.15;;;2.72;;
31306;SDS011;17935;51.120;13.132;2022-09-13T13:01:48;3.08;;;1.90;;
31306;SDS011;17935;51.120;13.132;2022-09-13T13:04:17;4.35;;;2.10;;
31306;SDS011;17935;51.120;13.132;2022-09-13T13:06:47;2.90;;;1.83;;
31306;SDS011;17935;51.120;13.132;2022-09-13T13:12:30;1.95;;;1.73;;
31306;SDS011;17935;51.120;13.132;2022-09-13T13:14:57;2.42;;;2.22;;
31306;SDS011;17935;51.120;13.132;2022-09-13T13:22:51;4.82;;;1.80;;
31306;SDS011;17935;51.120;13.132;2022-09-13T13:25:32;2.40;;;1.70;;
31306;SDS011;17935;51.120;13.132;2022-09-13T13:28:01;1.60;;;1.50;;
31306;SDS011;17935;51.120;13.132;2022-09-13T13:30:39;6.38;;;2.08;;
31306;SDS011;17935;51.120;13.132;2022-09-13T13:33:12;1.60;;;1.50;;
31306;SDS011;17935;51.120;13.132;2022-09-13T13:35:39;2.30;;;1.90;;
31306;SDS011;17935;51.120;13.132;2022-09-13T13:38:16;1.85;;;1.75;;
31306;SDS011;17935;51.120;13.132;2022-09-13T13:40:42;2.63;;;2.17;;
31306;SDS011;17935;51.120;13.132;2022-09-13T13:43:16;1.88;;;1.75;;
31306;SDS011;17935;51.120;13.132;2022-09-13T13:45:57;2.15;;;1.67;;
31306;SDS011;17935;51.120;13.132;2022-09-13T13:48:39;7.75;;;1.45;;
31306;SDS011;17935;51.120;13.132;2022-09-13T13:53:42;5.78;;;2.00;;
31306;SDS011;17935;51.120;13.132;2022-09-13T14:01:19;5.38;;;2.65;;
31306;SDS011;17935;51.120;13.132;2022-09-13T14:06:16;2.28;;;1.55;;
31306;SDS011;17935;51.120;13.132;2022-09-13T14:08:45;5.85;;;1.90;;
31306;SDS011;17935;51.120;13.132;2022-09-13T14:14:00;3.08;;;1.55;;
31306;SDS011;17935;51.120;13.132;2022-09-13T14:16:42;12.68;;;2.28;;
31306;SDS011;17935;51.120;13.132;2022-09-13T14:19:19;7.05;;;2.22;;
31306;SDS011;17935;51.120;13.132;2022-09-13T14:22:03;6.88;;;1.88;;
31306;SDS011;17935;51.120;13.132;2022-09-13T14:24:33;2.35;;;1.92;;
31306;SDS011;17935;51.120;13.132;2022-09-13T14:27:01;4.03;;;2.05;;
31306;SDS011;17935;51.120;13.132;2022-09-13T14:29:27;2.00;;;1.77;;
31306;SDS011;17935;51.120;13.132;2022-09-13T14:32:01;9.10;;;1.98;;
31306;SDS011;17935;51.120;13.132;2022-09-13T14:34:29;4.22;;;1.85;;
31306;SDS011;17935;51.120;13.132;2022-09-13T14:36:56;2.20;;;1.58;;
31306;SDS011;17935;51.120;13.132;2022-09-13T14:39:23;5.18;;;1.90;;
31306;SDS011;17935;51.120;13.132;2022-09-13T14:41:56;2.00;;;1.77;;
31306;SDS011;17935;51.120;13.132;2022-09-13T14:44:23;2.58;;;1.95;;
31306;SDS011;17935;51.120;13.132;2022-09-13T14:46:52;6.15;;;1.95;;
31306;SDS011;17935;51.120;13.132;2022-09-13T14:49:22;2.58;;;1.83;;
31306;SDS011;17935;51.120;13.132;2022-09-13T14:52:00;3.45;;;1.70;;
31306;SDS011;17935;51.120;13.132;2022-09-13T14:56:54;4.32;;;1.98;;
31306;SDS011;17935;51.120;13.132;2022-09-13T15:01:53;3.10;;;1.95;;
31306;SDS011;17935;51.120;13.132;2022-09-13T15:04:21;1.80;;;1.70;;
31306;SDS011;17935;51.120;13.132;2022-09-13T15:06:48;3.03;;;2.00;;
31306;SDS011;17935;51.120;13.132;2022-09-13T15:09:30;2.60;;;1.70;;
31306;SDS011;17935;51.120;13.132;2022-09-13T15:11:58;1.88;;;1.77;;
31306;SDS011;17935;51.120;13.132;2022-09-13T15:16:53;3.47;;;1.70;;
31306;SDS011;17935;51.120;13.132;2022-09-13T15:21:48;2.03;;;1.80;;
31306;SDS011;17935;51.120;13.132;2022-09-13T15:24:19;8.48;;;1.70;;
31306;SDS011;17935;51.120;13.132;2022-09-13T15:26:46;1.70;;;1.60;;
31306;SDS011;17935;51.120;13.132;2022-09-13T15:29:16;3.38;;;2.13;;
31306;SDS011;17935;51.120;13.132;2022-09-13T15:31:43;5.70;;;1.80;;
31306;SDS011;17935;51.120;13.132;2022-09-13T15:36:41;2.08;;;1.70;;
31306;SDS011;17935;51.120;13.132;2022-09-13T15:41:35;1.80;;;1.70;;
31306;SDS011;17935;51.120;13.132;2022-09-13T15:44:01;2.65;;;1.85;;
31306;SDS011;17935;51.120;13.132;2022-09-13T15:46:28;3.25;;;2.05;;
31306;SDS011;17935;51.120;13.132;2022-09-13T15:48:59;1.98;;;1.77;;
31306;SDS011;17935;51.120;13.132;2022-09-13T15:51:26;2.78;;;2.00;;
31306;SDS011;17935;51.120;13.132;2022-09-13T15:53:52;3.72;;;1.80;;
31306;SDS011;17935;51.120;13.132;2022-09-13T15:56:20;1.70;;;1.60;;
31306;SDS011;17935;51.120;13.132;2022-09-13T15:58:47;4.78;;;2.00;;
31306;SDS011;17935;51.120;13.132;2022-09-13T16:01:14;2.58;;;1.95;;
31306;SDS011;17935;51.120;13.132;2022-09-13T16:03:40;1.98;;;1.88;;
31306;SDS011;17935;51.120;13.132;2022-09-13T16:06:06;4.80;;;1.98;;
31306;SDS011;17935;51.120;13.132;2022-09-13T16:08:33;3.00;;;1.52;;
31306;SDS011;17935;51.120;13.132;2022-09-13T16:10:59;2.63;;;1.50;;
31306;SDS011;17935;51.120;13.132;2022-09-13T16:13:26;2.15;;;1.90;;
31306;SDS011;17935;51.120;13.132;2022-09-13T16:15:52;2.90;;;2.30;;
31306;SDS011;17935;51.120;13.132;2022-09-13T16:18:18;4.40;;;1.90;;
31306;SDS011;17935;51.120;13.132;2022-09-13T16:20:44;2.00;;;1.80;;
31306;SDS011;17935;51.120;13.132;2022-09-13T16:23:10;3.80;;;1.90;;
31306;SDS011;17935;51.120;13.132;2022-09-13T16:25:36;2.58;;;1.83;;
31306;SDS011;17935;51.120;13.132;2022-09-13T16:28:06;3.13;;;2.08;;
31306;SDS011;17935;51.120;13.132;2022-09-13T16:30:32;2.10;;;1.77;;
31306;SDS011;17935;51.120;13.132;2022-09-13T16:32:58;2.00;;;1.80;;
31306;SDS011;17935;51.120;13.132;2022-09-13T16:35:25;4.45;;;2.10;;
31306;SDS011;17935;51.120;13.132;2022-09-13T16:37:52;2.58;;;2.30;;
31306;SDS011;17935;51.120;13.132;2022-09-13T16:40:19;3.75;;;2.10;;
31306;SDS011;17935;51.120;13.132;2022-09-13T16:42:45;6.72;;;2.17;;
31306;SDS011;17935;51.120;13.132;2022-09-13T16:45:11;2.33;;;2.13;;
31306;SDS011;17935;51.120;13.132;2022-09-13T16:47:37;3.33;;;1.73;;
31306;SDS011;17935;51.120;13.132;2022-09-13T16:50:05;4.20;;;1.90;;
31306;SDS011;17935;51.120;13.132;2022-09-13T16:52:31;2.40;;;1.70;;
31306;SDS011;17935;51.120;13.132;2022-09-13T16:54:58;3.60;;;1.90;;
31306;SDS011;17935;51.120;13.132;2022-09-13T16:57:24;6.00;;;2.17;;
31306;SDS011;17935;51.120;13.132;2022-09-13T16:59:50;5.18;;;2.17;;
31306;SDS011;17935;51.120;13.132;2022-09-13T17:02:17;6.63;;;2.25;;
31306;SDS011;17935;51.120;13.132;2022-09-13T17:04:42;2.40;;;2.10;;
31306;SDS011;17935;51.120;13.132;2022-09-13T17:07:09;2.30;;;2.10;;
31306;SDS011;17935;51.120;13.132;2022-09-13T17:09:35;3.38;;;2.08;;